createdAt,value
2023-02-11T00:17:45.550Z,301
2023-02-11T00:37:45.561Z,297
2023-02-11T00:57:45.582Z,297
2023-02-11T01:17:45.363Z,299
2023-02-11T01:37:45.559Z,300
2023-02-11T01:57:45.610Z,297
2023-02-11T02:17:45.609Z,298
2023-02-11T02:37:45.631Z,297
2023-02-11T02:57:45.622Z,297
2023-02-11T03:17:45.654Z,290
2023-02-11T03:37:45.652Z,293
2023-02-11T03:57:45.707Z,295
2023-02-11T04:17:45.704Z,294
2023-02-11T04:37:45.665Z,297
2023-02-11T04:57:45.674Z,295
2023-02-11T05:17:45.691Z,297
2023-02-11T05:37:45.230Z,294
2023-02-11T05:57:45.759Z,299
2023-02-11T06:37:45.809Z,295
2023-02-11T06:57:45.785Z,297
2023-02-11T07:37:45.789Z,296
2023-02-11T07:57:45.807Z,292
2023-02-11T08:17:45.339Z,294
2023-02-11T08:37:45.856Z,296
2023-02-11T09:17:45.848Z,295
2023-02-11T09:37:45.879Z,292
2023-02-11T09:57:45.852Z,289
2023-02-11T10:17:45.879Z,291
2023-02-11T10:37:45.885Z,295
2023-02-11T10:57:45.880Z,294
2023-02-11T11:17:45.427Z,294
2023-02-11T11:37:45.894Z,290
2023-02-11T11:57:45.935Z,292
2023-02-11T12:17:45.934Z,289
2023-02-11T12:37:45.930Z,289
2023-02-11T12:57:46.016Z,292
2023-02-11T13:17:45.975Z,293
2023-02-11T13:37:45.984Z,293
2023-02-11T13:57:45.981Z,285
2023-02-11T14:17:46.004Z,291
2023-02-11T14:37:47.153Z,292
2023-02-11T14:57:46.026Z,289
2023-02-11T15:17:46.022Z,292
2023-02-11T15:37:46.430Z,289
2023-02-11T15:57:46.061Z,290
2023-02-11T16:17:45.537Z,288
2023-02-11T16:37:45.544Z,289
2023-02-11T16:57:46.052Z,289
2023-02-11T17:17:46.042Z,287
2023-02-11T17:37:46.047Z,289
2023-02-11T17:57:46.071Z,292
2023-02-11T18:17:45.575Z,291
2023-02-11T18:37:46.087Z,288
2023-02-11T18:57:46.113Z,294
2023-02-11T19:17:46.188Z,293
2023-02-11T19:37:46.167Z,293
2023-02-11T19:57:46.194Z,290
2023-02-11T20:17:46.152Z,295
2023-02-11T20:37:46.137Z,290
2023-02-11T20:57:46.152Z,286
2023-02-11T21:17:45.969Z,287
2023-02-11T21:37:46.194Z,290
2023-02-11T21:57:46.209Z,288
2023-02-11T22:17:46.224Z,286
2023-02-11T22:37:46.272Z,287
2023-02-11T22:57:46.336Z,286
2023-02-11T23:17:46.231Z,288
2023-02-11T23:57:46.077Z,283
